logo
Rechercher aéroport 
image banner adimage banner adimage banner ad
image banner ad

NVVV - Port Vila

Situé à Port Vila, Vanuatu

ICAO - NVVV, IATA - VLI

Données fournies par Airmate  

Information générale

Coordonnées: S17°41'58" E168°19'11"
Élévation : 70 feet MSL.
 
Voir autres Aéroports à Shefa

Données opérationnelles

Special qualification required
Heure actuelle UTC:
Heure actuelle locale:
Météo
METAR: NVVV 032100Z VRB01KT 9999 -DZ FEW018TCU SCT020 BKN110 28/27 Q1014 INTER 2100/2300 7000 RA SCT010 FEW015TCU OVC040
Voir NOTAMs / SUP AIP / TFR affectant cet aéroport [VIEW]
Fréquences de communication: [VIEW]

Pistes:

Identifiant RWYQFULongueur (ft)Largeur (ft)SurfaceLDA (ft)
11118°8530148ASP
29298°8530148ASP

Coordonnées de l'aéroport

Adresse: Port Vila Vanuatu

Vue satellite de NVVV